createdAt,value
2022-09-18T13:18:02.627Z,8.2
2022-09-18T13:23:02.362Z,8.2
2022-09-18T13:28:02.379Z,8.2
2022-09-18T13:33:02.374Z,8.2
2022-09-18T13:38:02.495Z,8.2
2022-09-18T13:43:02.399Z,8.2
2022-09-18T13:50:38.568Z,23.2
2022-09-18T14:01:59.240Z,27
2022-09-18T14:06:59.044Z,27.4
2022-09-18T14:11:59.064Z,27.2
2022-09-18T14:17:00.671Z,27.1
2022-09-18T14:21:59.201Z,27.1
2022-09-18T14:31:10.059Z,26.9
2022-09-18T14:38:45.886Z,26.7
2022-09-18T14:43:45.789Z,26.3
2022-09-18T15:35:04.859Z,28.5
2022-09-18T15:52:51.758Z,28.3
2022-09-18T15:57:51.638Z,28.3
2022-09-18T16:02:51.588Z,27.9
2022-09-18T16:07:51.584Z,27.6
2022-09-18T16:12:51.706Z,27.2
2022-09-18T16:17:51.511Z,26.8
2022-09-18T16:22:51.536Z,26.4
2022-09-18T16:27:51.535Z,26.1
2022-09-18T16:32:51.668Z,25.8
2022-09-18T16:37:51.541Z,25.4
2022-09-18T16:42:51.515Z,25
2022-09-18T16:47:51.564Z,24.7
2022-09-18T16:52:51.639Z,24.4
2022-09-18T16:57:51.563Z,24
2022-09-18T17:02:51.637Z,23.8
2022-09-18T17:07:51.535Z,23.7
2022-09-18T17:12:51.663Z,23.5
2022-09-18T17:17:51.890Z,23.4
2022-09-18T17:22:51.552Z,23.2
2022-09-18T17:27:51.529Z,23
2022-09-18T17:32:51.651Z,22.9
2022-09-18T17:37:51.557Z,22.7
2022-09-18T17:42:51.532Z,22.6
2022-09-18T17:47:51.566Z,22.6
2022-09-18T17:52:51.651Z,22.5
2022-09-18T17:57:51.572Z,22.4
2022-09-18T18:02:51.537Z,22.2
2022-09-18T18:07:51.539Z,22.1
2022-09-18T18:12:51.655Z,22
2022-09-18T18:17:51.548Z,21.7
2022-09-18T18:22:51.558Z,21.6
2022-09-18T18:27:51.533Z,21.3
2022-09-18T18:32:53.557Z,21.2
2022-09-18T18:37:51.531Z,21
2022-09-18T18:42:51.532Z,20.9
2022-09-18T18:47:51.581Z,20.8
2022-09-18T18:52:51.671Z,20.8
2022-09-18T18:57:51.591Z,20.7
2022-09-18T19:02:51.567Z,20.7
2022-09-18T19:07:51.566Z,20.7
2022-09-18T19:12:51.585Z,20.7
2022-09-18T19:17:51.569Z,20.6
2022-09-18T19:22:51.538Z,20.6
2022-09-18T19:27:51.566Z,20.4
2022-09-18T19:32:51.678Z,20.3
2022-09-18T19:37:51.615Z,20.3
2022-09-18T19:42:51.689Z,20.2
2022-09-18T19:47:51.586Z,20.2
2022-09-18T19:52:51.676Z,20.1
2022-09-18T19:57:51.577Z,20.1
2022-09-18T20:02:51.559Z,20.1
2022-09-18T20:07:51.572Z,20
2022-09-18T20:12:51.664Z,20
2022-09-18T20:17:51.584Z,20
2022-09-18T20:22:51.562Z,20
2022-09-18T20:27:51.564Z,20
2022-09-18T20:32:51.695Z,20
2022-09-18T20:37:51.618Z,20.1
2022-09-18T20:42:51.566Z,20
2022-09-18T20:47:51.616Z,20
2022-09-18T20:52:51.799Z,19.9
2022-09-18T20:57:51.574Z,20
2022-09-18T21:02:51.569Z,19.9
2022-09-18T21:07:51.582Z,19.8
2022-09-18T21:12:51.705Z,19.8
2022-09-18T21:17:51.622Z,19.7
2022-09-18T21:22:51.573Z,19.7
2022-09-18T21:27:51.581Z,19.7
2022-09-18T21:32:55.451Z,19.6
2022-09-18T21:37:51.616Z,19.6
2022-09-18T21:42:51.614Z,19.6
2022-09-18T21:47:51.657Z,19.5
2022-09-18T21:52:51.652Z,19.5
2022-09-18T21:57:51.596Z,19.5
2022-09-18T22:02:51.590Z,19.5
2022-09-18T22:07:51.637Z,19.5
2022-09-18T22:12:51.609Z,19.6
2022-09-18T22:17:51.599Z,19.5
2022-09-18T22:22:51.590Z,19.4
2022-09-18T22:27:51.629Z,19.3
2022-09-18T22:32:51.704Z,19.3
2022-09-18T22:37:51.620Z,19.3
2022-09-18T22:42:51.621Z,19.3
2022-09-18T22:47:51.660Z,19.3
2022-09-18T22:52:51.744Z,19.3
2022-09-18T22:57:51.628Z,19.4
2022-09-18T23:02:51.625Z,19.5
2022-09-18T23:07:51.632Z,19.5
2022-09-18T23:12:51.739Z,19.4
2022-09-18T23:17:51.646Z,19.5
2022-09-18T23:22:51.771Z,19.5
2022-09-18T23:27:51.622Z,19.6
2022-09-18T23:32:51.738Z,19.6
2022-09-18T23:37:51.628Z,19.6
2022-09-18T23:42:51.624Z,19.6
2022-09-18T23:47:51.679Z,19.6
2022-09-18T23:52:51.767Z,19.6
2022-09-18T23:57:51.647Z,19.6
